Leeds Point, NJ

11:54 PM EST on January 29, 2015 (GMT -0500)
Chatham | Change Station
CLOSE
Current Station
Personal Weather Station
Location: Smithville, NJ
Elevation: 46 ft
Nearby Weather Stations
Active Advisory: Special Statement Active Notice: Public Information Statement

Elev 46 ft 39.49 °N, 74.47 °W | Updated 9 minutes ago

Overcast
Overcast
35.6 °F
Feels Like 29 °F
N
8.3
Wind Variable Wind from South
Gusts 9.2 mph

Today
High -- | Low -- °F
--% Chance of Precip.
Yesterday
High -- | Low -- °F
Precip. -- in
7:08 AM 5:14 PM
Waxing Gibbous, 80% visible
Pressure 30.01 in
Visibility 10.0 miles
Clouds Overcast 4500 ft
Windchill 29 °F
Dew Point 26 °F
Humidity 69%
Rainfall 0.00 in
Snow Depth Not available.
UV 0 out of 12
Pollen .10 out of 12
Air Quality Not available.
Flu Activity Not available.
METAR KACY 300354Z AUTO 18007KT 10SM OVC045 02/M02 A3001 RMK AO2 SLP163 T00171022 TSNO

More Conditions Fewer Conditions

Pressure 30.01 in
Visibility 10.0 miles
Clouds Overcast 4500 ft
Windchill 29 °F
Dew Point 26 °F
Humidity 69%
Rainfall 0.00 in
Snow Depth Not available.
UV 0 out of 12
Pollen .10 out of 12
Air Quality Not available.
Flu Activity Not available.
METAR KACY 300354Z AUTO 18007KT 10SM OVC045 02/M02 A3001 RMK AO2 SLP163 T00171022 TSNO

More Conditions Fewer Conditions

Nowcast | as of 10:52 PM EST on January 29, 2015

Areas of snow may lower visibilities and create a few areas of slick travel overnight. The most snow will occur across northeast Pennsylvania and the northern half of New Jersey. Use caution when traveling overnight.

×

10-Day Weather Forecast

Almanac

Astronomy

Jan. 29, 2015 Rise Set
Actual Time
Civil Twilight
Nautical Twilight
Astronomical Twilight
Moon
Length of Visible Light
Length of Day
Tomorrow will be .
, % of the Moon is Illuminated

Today's Extremes

State Highs State Lows

Community

WunderPhotos

Upload Photos

1,791,712 photos uploaded!

WunderBlogs® & News

Nearby

Air Quality

  Air Quality AQ Index Pollutant
Not available.

Snow Depth

Station Depth Elevation

Earthquake Activity

City Distance Mag. Time & Date
Minimum magnitude displayed is 2.5.

Coastal Water Temperatures

Place Temperature

Nearby Weather Stations